createdAt,value
2023-01-29T00:01:23.490Z,28.35
2023-01-29T00:03:53.406Z,33.27
2023-01-29T00:06:20.416Z,23.42
2023-01-29T00:08:47.420Z,24.85
2023-01-29T00:11:14.433Z,25.73
2023-01-29T00:13:41.191Z,26.52
2023-01-29T00:16:08.441Z,32.13
2023-01-29T00:18:41.737Z,23.45
2023-01-29T00:21:13.558Z,26.95
2023-01-29T00:23:40.327Z,24.90
2023-01-29T00:26:07.663Z,25.15
2023-01-29T00:28:35.044Z,24.47
2023-01-29T00:31:15.907Z,25.98
2023-01-29T00:33:43.861Z,24.67
2023-01-29T00:36:12.700Z,29.33
2023-01-29T00:38:39.619Z,25.33
2023-01-29T00:41:29.664Z,27.17
2023-01-29T00:44:15.397Z,23.63
2023-01-29T00:46:42.407Z,25.52
2023-01-29T00:49:09.977Z,24.65
2023-01-29T00:51:38.017Z,27.13
2023-01-29T00:54:06.822Z,29.37
2023-01-29T00:56:37.497Z,25.52
2023-01-29T00:59:04.661Z,25.15
2023-01-29T01:01:49.894Z,25.42
2023-01-29T01:04:16.738Z,25.75
2023-01-29T01:06:43.787Z,25.03
2023-01-29T01:09:29.881Z,28.05
2023-01-29T01:11:56.670Z,34.45
2023-01-29T01:14:23.487Z,29.45
2023-01-29T01:16:50.286Z,23.35
2023-01-29T01:19:17.815Z,25.90
2023-01-29T01:21:47.048Z,28.52
2023-01-29T01:24:14.615Z,30.75
2023-01-29T01:26:41.650Z,29.27
2023-01-29T01:29:09.204Z,29.98
2023-01-29T01:31:36.049Z,39.90
2023-01-29T01:34:03.015Z,38.80
2023-01-29T01:36:31.447Z,32.03
2023-01-29T01:38:58.928Z,29.98
2023-01-29T01:41:26.005Z,29.83
2023-01-29T01:43:58.672Z,32.90
2023-01-29T01:46:29.734Z,30.42
2023-01-29T01:49:05.827Z,29.27
2023-01-29T01:51:35.633Z,30.92
2023-01-29T01:54:08.284Z,31.95
2023-01-29T01:56:40.854Z,26.30
2023-01-29T01:59:12.056Z,25.80
2023-01-29T02:01:42.814Z,26.45
2023-01-29T02:04:32.525Z,30.40
2023-01-29T02:07:21.691Z,30.10
2023-01-29T02:09:53.232Z,27.43
2023-01-29T02:12:21.995Z,30.25
2023-01-29T02:14:51.384Z,31.73
2023-01-29T02:17:19.842Z,28.08
2023-01-29T02:20:26.593Z,27.45
2023-01-29T02:22:55.410Z,26.40
2023-01-29T02:25:59.303Z,27.70
2023-01-29T02:28:37.909Z,25.92
2023-01-29T02:31:21.877Z,28.98
2023-01-29T02:33:48.740Z,25.50
2023-01-29T02:36:31.955Z,26.17
2023-01-29T02:39:02.278Z,23.30
2023-01-29T02:41:50.220Z,28.23
2023-01-29T02:45:02.044Z,25.48
2023-01-29T02:47:55.882Z,25.92
2023-01-29T02:50:49.259Z,28.40
2023-01-29T02:53:25.829Z,27.52
2023-01-29T02:56:00.555Z,27.63
2023-01-29T02:58:43.316Z,27.27
2023-01-29T03:01:16.869Z,29.00
2023-01-29T03:03:47.871Z,30.27
2023-01-29T03:06:28.291Z,29.75
2023-01-29T03:09:07.138Z,31.35
2023-01-29T03:11:55.575Z,30.90
2023-01-29T03:14:53.516Z,30.45
2023-01-29T03:17:26.800Z,32.03
2023-01-29T03:19:54.321Z,29.83
2023-01-29T03:22:23.703Z,28.80
2023-01-29T03:25:19.514Z,27.70
2023-01-29T03:28:12.194Z,32.65
2023-01-29T03:31:07.498Z,33.27
2023-01-29T03:33:51.687Z,32.45
2023-01-29T03:36:45.240Z,30.02
2023-01-29T03:39:14.912Z,28.20
2023-01-29T03:41:57.839Z,31.58
2023-01-29T03:44:53.340Z,29.70
2023-01-29T03:47:50.440Z,27.92
2023-01-29T03:50:47.013Z,37.17
2023-01-29T03:53:30.688Z,30.85
2023-01-29T03:56:13.723Z,28.80
2023-01-29T03:59:11.201Z,32.60
2023-01-29T04:02:04.992Z,38.28
2023-01-29T04:04:34.210Z,43.13
2023-01-29T04:07:23.841Z,39.85
2023-01-29T04:10:07.997Z,43.10
2023-01-29T04:12:42.113Z,40.53
2023-01-29T04:15:15.357Z,38.60
2023-01-29T04:17:48.101Z,36.15
2023-01-29T04:20:22.220Z,36.45
2023-01-29T04:22:51.327Z,31.30
2023-01-29T04:25:28.945Z,31.03
2023-01-29T04:28:13.818Z,33.55
2023-01-29T04:30:53.557Z,31.38
2023-01-29T04:33:40.113Z,32.70
2023-01-29T04:36:34.007Z,28.95
2023-01-29T04:39:21.133Z,31.83
2023-01-29T04:42:07.328Z,31.95
2023-01-29T04:44:40.225Z,30.90
2023-01-29T04:47:40.661Z,33.33
2023-01-29T04:50:34.948Z,32.55
2023-01-29T04:53:23.964Z,32.77
2023-01-29T04:56:14.830Z,27.00
2023-01-29T04:58:49.222Z,30.63
2023-01-29T05:01:19.409Z,28.30
2023-01-29T05:03:51.087Z,27.63
2023-01-29T05:06:18.946Z,34.03
2023-01-29T05:08:47.552Z,28.30
2023-01-29T05:11:14.551Z,32.63
2023-01-29T05:13:43.001Z,31.65
2023-01-29T05:16:15.808Z,31.33
2023-01-29T05:18:42.969Z,26.93
2023-01-29T05:21:10.305Z,34.40
2023-01-29T05:23:37.085Z,29.83
2023-01-29T05:26:04.477Z,33.28
2023-01-29T05:28:31.623Z,36.80
2023-01-29T05:30:58.742Z,34.40
2023-01-29T05:33:30.911Z,29.33
2023-01-29T05:35:59.789Z,29.08
2023-01-29T05:38:26.723Z,31.83
2023-01-29T05:40:54.495Z,34.28
2023-01-29T05:43:23.678Z,42.50
2023-01-29T05:46:00.867Z,32.25
2023-01-29T05:48:29.286Z,36.53
2023-01-29T05:51:04.561Z,38.22
2023-01-29T05:53:32.410Z,40.95
2023-01-29T05:56:02.474Z,33.17
2023-01-29T05:58:34.956Z,31.40
2023-01-29T06:01:15.409Z,31.17
2023-01-29T06:03:42.395Z,37.38
2023-01-29T06:06:09.379Z,39.28
2023-01-29T06:08:36.687Z,36.33
2023-01-29T06:11:04.230Z,36.92
2023-01-29T06:13:30.992Z,35.42
2023-01-29T06:15:57.883Z,34.58
2023-01-29T06:18:24.793Z,36.53
2023-01-29T06:20:51.591Z,30.63
2023-01-29T06:23:18.454Z,32.30
2023-01-29T06:25:45.269Z,32.80
2023-01-29T06:28:12.162Z,34.92
2023-01-29T06:30:38.926Z,34.70
2023-01-29T06:33:05.793Z,41.23
2023-01-29T06:35:32.619Z,37.50
2023-01-29T06:37:59.375Z,33.65
2023-01-29T06:40:26.156Z,41.17
2023-01-29T06:42:52.950Z,37.85
2023-01-29T06:45:19.811Z,38.20
2023-01-29T06:47:46.748Z,40.53
2023-01-29T06:50:13.655Z,38.15
2023-01-29T06:52:40.542Z,36.85
2023-01-29T06:55:07.836Z,42.45
2023-01-29T06:57:34.677Z,39.17
2023-01-29T07:00:01.517Z,39.78
2023-01-29T07:02:28.585Z,37.75
2023-01-29T07:04:55.373Z,40.72
2023-01-29T07:07:22.135Z,40.20
2023-01-29T07:09:48.859Z,41.37
2023-01-29T07:12:15.614Z,39.65
2023-01-29T07:14:42.462Z,38.40
2023-01-29T07:17:09.284Z,36.08
2023-01-29T07:19:36.146Z,41.92
2023-01-29T07:22:03.943Z,44.40
2023-01-29T07:24:30.910Z,42.97
2023-01-29T07:26:57.867Z,39.95
2023-01-29T07:29:24.705Z,35.33
2023-01-29T07:31:51.542Z,37.30
2023-01-29T07:34:18.544Z,38.37
2023-01-29T07:36:45.464Z,37.08
2023-01-29T07:39:12.342Z,33.13
2023-01-29T07:41:39.185Z,31.25
2023-01-29T07:44:15.428Z,32.20
2023-01-29T07:46:42.384Z,28.27
2023-01-29T07:49:09.179Z,28.75
2023-01-29T07:51:35.952Z,25.70
2023-01-29T07:54:02.768Z,29.85
2023-01-29T07:56:29.600Z,29.50
2023-01-29T07:58:56.433Z,28.10
2023-01-29T08:01:23.279Z,28.50
2023-01-29T08:03:51.398Z,26.10
2023-01-29T08:06:18.343Z,28.13
2023-01-29T08:08:45.139Z,26.10
2023-01-29T08:11:11.902Z,29.43
2023-01-29T08:13:38.796Z,28.02
2023-01-29T08:16:06.228Z,27.27
2023-01-29T08:18:33.038Z,24.77
2023-01-29T08:21:01.223Z,24.58
2023-01-29T08:23:28.066Z,27.43
2023-01-29T08:25:55.024Z,24.52
2023-01-29T08:28:22.141Z,28.58
2023-01-29T08:30:49.043Z,23.55
2023-01-29T08:33:17.540Z,22.63
2023-01-29T08:35:49.192Z,23.57
2023-01-29T08:38:15.955Z,25.00
2023-01-29T08:40:42.728Z,28.35
2023-01-29T08:43:12.279Z,23.52
2023-01-29T08:45:41.971Z,25.30
2023-01-29T08:48:09.619Z,24.80
2023-01-29T08:50:36.817Z,25.02
2023-01-29T08:53:07.894Z,24.95
2023-01-29T08:55:39.696Z,27.67
2023-01-29T08:58:08.028Z,26.35
2023-01-29T09:00:35.641Z,27.53
2023-01-29T09:03:03.799Z,26.40
2023-01-29T09:05:30.691Z,26.48
2023-01-29T09:07:58.071Z,26.98
2023-01-29T09:10:25.793Z,24.83
2023-01-29T09:12:52.631Z,29.80
2023-01-29T09:15:19.762Z,18.67
2023-01-29T09:17:46.978Z,26.95
2023-01-29T09:20:13.783Z,26.30
2023-01-29T09:22:40.636Z,25.42
2023-01-29T09:25:07.903Z,25.33
2023-01-29T09:27:34.696Z,25.05
2023-01-29T09:30:01.455Z,26.75
2023-01-29T09:35:17.531Z,26.13
2023-01-29T09:37:48.078Z,26.47
2023-01-29T09:40:24.764Z,21.50
2023-01-29T09:42:57.840Z,22.25
2023-01-29T09:45:28.122Z,25.00
2023-01-29T09:48:02.229Z,24.35
2023-01-29T09:50:41.808Z,17.10
2023-01-29T09:53:35.299Z,22.00
2023-01-29T09:56:23.696Z,21.48
2023-01-29T09:58:50.542Z,20.05
2023-01-29T10:01:38.276Z,22.05
2023-01-29T10:04:21.143Z,17.60
2023-01-29T10:06:56.767Z,20.65
2023-01-29T10:09:48.300Z,20.63
2023-01-29T10:12:31.095Z,21.02
2023-01-29T10:15:09.477Z,21.63
2023-01-29T10:18:02.426Z,23.43
2023-01-29T10:20:47.610Z,19.50
2023-01-29T10:23:34.842Z,20.80
2023-01-29T10:26:01.920Z,21.05
2023-01-29T10:28:43.413Z,19.42
2023-01-29T10:31:17.701Z,19.85
2023-01-29T10:34:12.579Z,19.83
2023-01-29T10:36:45.909Z,18.67
2023-01-29T10:39:21.081Z,20.08
2023-01-29T10:41:54.094Z,18.13
2023-01-29T10:44:30.053Z,19.17
2023-01-29T10:47:21.092Z,23.13
2023-01-29T10:49:58.779Z,17.38
2023-01-29T10:52:35.279Z,20.30
2023-01-29T10:55:14.569Z,18.00
2023-01-29T10:57:57.533Z,18.17
2023-01-29T11:00:48.658Z,15.10
2023-01-29T11:03:26.960Z,17.80
2023-01-29T11:06:21.744Z,18.13
2023-01-29T11:08:56.296Z,17.45
2023-01-29T11:11:56.261Z,13.50
2023-01-29T11:14:37.785Z,14.93
2023-01-29T11:17:04.726Z,16.30
2023-01-29T11:19:44.743Z,17.98
2023-01-29T11:22:20.297Z,17.90
2023-01-29T11:25:07.369Z,16.83
2023-01-29T11:27:43.399Z,17.40
2023-01-29T11:30:23.353Z,17.67
2023-01-29T11:32:56.326Z,17.42
2023-01-29T11:35:25.626Z,16.80
2023-01-29T11:37:52.971Z,17.67
2023-01-29T11:40:19.895Z,16.45
2023-01-29T11:42:47.829Z,18.52
2023-01-29T11:45:20.440Z,16.48
2023-01-29T11:47:54.143Z,15.40
2023-01-29T11:50:25.192Z,17.88
2023-01-29T11:52:52.211Z,15.63
2023-01-29T11:55:20.793Z,16.25
2023-01-29T11:57:54.413Z,18.02
2023-01-29T12:00:33.041Z,17.02
2023-01-29T12:03:15.005Z,14.77
2023-01-29T12:05:54.609Z,15.35
2023-01-29T12:08:23.561Z,14.90
2023-01-29T12:10:50.667Z,14.68
2023-01-29T12:13:28.091Z,16.02
2023-01-29T12:16:43.429Z,15.07
2023-01-29T12:19:34.020Z,12.35
2023-01-29T12:22:06.927Z,13.60
2023-01-29T12:24:42.406Z,12.70
2023-01-29T12:27:24.072Z,18.23
2023-01-29T12:30:04.166Z,12.27
2023-01-29T12:32:59.912Z,14.35
2023-01-29T12:36:21.959Z,15.05
2023-01-29T12:38:48.915Z,15.52
2023-01-29T12:41:28.931Z,16.10
2023-01-29T12:44:02.657Z,19.95
2023-01-29T12:46:37.333Z,14.38
2023-01-29T12:49:12.763Z,15.15
2023-01-29T12:51:48.985Z,16.17
2023-01-29T12:54:21.194Z,19.27
2023-01-29T12:56:56.103Z,16.37
2023-01-29T12:59:31.466Z,16.52
2023-01-29T13:02:21.951Z,15.57
2023-01-29T13:04:57.904Z,15.95
2023-01-29T13:07:40.179Z,18.73
2023-01-29T13:10:16.918Z,18.07
2023-01-29T13:12:57.466Z,15.00
2023-01-29T13:15:35.838Z,14.05
2023-01-29T13:18:08.618Z,12.80
2023-01-29T13:20:35.634Z,17.13
2023-01-29T13:23:17.416Z,18.77
2023-01-29T13:25:44.307Z,15.98
2023-01-29T13:28:23.526Z,15.38
2023-01-29T13:31:14.230Z,14.75
2023-01-29T13:33:43.111Z,15.73
2023-01-29T13:36:21.688Z,14.18
2023-01-29T13:39:07.910Z,15.35
2023-01-29T13:41:39.909Z,14.32
2023-01-29T13:44:18.487Z,15.50
2023-01-29T13:46:51.981Z,15.60
2023-01-29T13:49:42.685Z,16.42
2023-01-29T13:52:15.539Z,17.13
2023-01-29T13:54:52.854Z,15.20
2023-01-29T13:57:44.830Z,16.42
2023-01-29T14:00:34.651Z,15.88
2023-01-29T14:03:01.343Z,16.77
2023-01-29T14:05:31.292Z,15.48
2023-01-29T14:08:39.443Z,13.93
2023-01-29T14:11:15.370Z,15.13
2023-01-29T14:13:46.698Z,14.77
2023-01-29T14:16:13.504Z,16.17
2023-01-29T14:19:02.772Z,17.38
2023-01-29T14:21:32.491Z,17.23
2023-01-29T14:24:20.982Z,15.35
2023-01-29T14:26:53.985Z,16.48
2023-01-29T14:29:34.211Z,16.03
2023-01-29T14:32:12.296Z,17.48
2023-01-29T14:34:49.405Z,15.15
2023-01-29T14:37:16.155Z,16.10
2023-01-29T14:39:42.917Z,16.25
2023-01-29T14:42:27.053Z,15.73
2023-01-29T14:45:21.849Z,18.92
2023-01-29T14:47:48.585Z,17.95
2023-01-29T14:50:31.962Z,16.38
2023-01-29T14:53:13.828Z,19.30
2023-01-29T14:55:48.055Z,16.35
2023-01-29T14:58:19.906Z,18.08
2023-01-29T15:00:51.838Z,17.80
2023-01-29T15:03:29.011Z,20.70
2023-01-29T15:05:59.062Z,19.75
2023-01-29T15:08:49.731Z,27.33
2023-01-29T15:11:36.568Z,33.58
2023-01-29T15:14:06.900Z,31.80
2023-01-29T15:16:59.399Z,25.25
2023-01-29T15:19:53.099Z,45.15
2023-01-29T15:22:22.057Z,38.60
2023-01-29T15:25:04.457Z,40.20
2023-01-29T15:27:31.868Z,32.67
2023-01-29T15:30:04.442Z,33.20
2023-01-29T15:32:39.434Z,40.47
2023-01-29T15:35:10.862Z,28.67
2023-01-29T15:37:38.457Z,30.33
2023-01-29T15:40:14.662Z,26.10
2023-01-29T15:42:48.753Z,22.27
2023-01-29T15:45:41.922Z,36.50
2023-01-29T15:48:18.142Z,27.53
2023-01-29T15:50:45.582Z,24.63
2023-01-29T15:53:21.877Z,35.85
2023-01-29T15:55:51.583Z,30.20
2023-01-29T15:58:24.257Z,25.73
2023-01-29T16:00:56.677Z,28.57
2023-01-29T16:03:25.462Z,26.08
2023-01-29T16:05:52.770Z,27.85
2023-01-29T16:08:21.829Z,20.60
2023-01-29T16:10:53.735Z,24.13
2023-01-29T16:13:29.992Z,21.23
2023-01-29T16:15:59.973Z,30.33
2023-01-29T16:18:36.480Z,24.52
2023-01-29T16:21:09.348Z,22.80
2023-01-29T16:23:41.929Z,21.30
2023-01-29T16:26:16.561Z,26.43
2023-01-29T16:28:45.343Z,20.25
2023-01-29T16:31:20.846Z,22.50
2023-01-29T16:33:49.579Z,23.80
2023-01-29T16:36:18.303Z,19.88
2023-01-29T16:38:54.223Z,21.60
2023-01-29T16:41:20.977Z,22.90
2023-01-29T16:43:59.378Z,23.73
2023-01-29T16:46:34.340Z,26.50
2023-01-29T16:49:01.918Z,32.17
2023-01-29T16:51:37.916Z,22.33
2023-01-29T16:54:12.638Z,25.73
2023-01-29T16:56:40.000Z,22.65
2023-01-29T16:59:07.214Z,24.05
2023-01-29T17:01:36.444Z,21.25
2023-01-29T17:04:15.884Z,21.60
2023-01-29T17:06:46.389Z,21.58
2023-01-29T17:09:27.362Z,22.55
2023-01-29T17:12:01.004Z,22.88
2023-01-29T17:14:31.981Z,23.10
2023-01-29T17:17:06.770Z,22.67
2023-01-29T17:19:34.022Z,26.70
2023-01-29T17:22:04.853Z,32.35
2023-01-29T17:24:32.358Z,33.08
2023-01-29T17:27:00.593Z,51.58
2023-01-29T17:29:30.761Z,45.63
2023-01-29T17:32:00.151Z,41.53
2023-01-29T17:34:27.297Z,32.80
2023-01-29T17:36:54.108Z,31.60
2023-01-29T17:39:22.723Z,39.25
2023-01-29T17:41:54.536Z,46.63
2023-01-29T17:44:21.835Z,29.15
2023-01-29T17:46:48.689Z,26.17
2023-01-29T17:49:23.454Z,26.05
2023-01-29T17:51:51.239Z,24.27
2023-01-29T17:54:18.179Z,23.87
2023-01-29T17:56:45.072Z,25.17
2023-01-29T17:59:23.424Z,22.83
2023-01-29T18:01:51.236Z,21.35
2023-01-29T18:04:18.304Z,22.85
2023-01-29T18:06:48.124Z,20.20
2023-01-29T18:09:16.957Z,23.50
2023-01-29T18:11:43.734Z,23.48
2023-01-29T18:14:14.132Z,23.00
2023-01-29T18:16:43.389Z,28.60
2023-01-29T18:19:14.807Z,27.17
2023-01-29T18:21:41.675Z,34.08
2023-01-29T18:24:08.699Z,31.85
2023-01-29T18:26:38.022Z,26.15
2023-01-29T18:29:05.290Z,24.10
2023-01-29T18:31:32.253Z,24.53
2023-01-29T18:33:59.287Z,28.08
2023-01-29T18:36:26.168Z,31.42
2023-01-29T18:38:52.979Z,25.85
2023-01-29T18:41:19.862Z,27.08
2023-01-29T18:43:46.634Z,27.53
2023-01-29T18:46:13.619Z,25.42
2023-01-29T18:48:42.368Z,26.13
2023-01-29T18:51:09.726Z,32.55
2023-01-29T18:53:36.484Z,32.00
2023-01-29T18:56:05.425Z,25.07
2023-01-29T18:58:36.184Z,25.90
2023-01-29T19:01:09.828Z,32.33
2023-01-29T19:03:40.628Z,32.88
2023-01-29T19:06:09.697Z,38.60
2023-01-29T19:08:36.769Z,32.10
2023-01-29T19:11:05.608Z,26.50
2023-01-29T19:13:33.041Z,28.52
2023-01-29T19:16:00.142Z,32.85
2023-01-29T19:18:28.079Z,27.13
2023-01-29T19:20:55.233Z,30.13
2023-01-29T19:23:22.472Z,28.15
2023-01-29T19:25:49.266Z,27.52
2023-01-29T19:28:16.062Z,33.35
2023-01-29T19:30:43.010Z,27.88
2023-01-29T19:33:10.581Z,27.33
2023-01-29T19:35:37.460Z,28.58
2023-01-29T19:38:04.787Z,29.40
2023-01-29T19:40:31.665Z,25.65
2023-01-29T19:42:58.694Z,25.48
2023-01-29T19:45:49.244Z,32.37
2023-01-29T19:48:21.675Z,26.52
2023-01-29T19:50:56.219Z,27.90
2023-01-29T19:53:23.523Z,22.88
2023-01-29T19:55:59.149Z,25.85
2023-01-29T19:58:26.350Z,20.97
2023-01-29T20:00:57.849Z,27.27
2023-01-29T20:03:25.613Z,24.00
2023-01-29T20:05:52.582Z,27.40
2023-01-29T20:08:19.569Z,25.13
2023-01-29T20:10:47.635Z,29.00
2023-01-29T20:13:16.051Z,24.73
2023-01-29T20:15:47.499Z,28.92
2023-01-29T20:18:15.416Z,26.42
2023-01-29T20:20:43.667Z,32.53
2023-01-29T20:23:11.542Z,29.73
2023-01-29T20:25:38.772Z,31.05
2023-01-29T20:28:10.268Z,30.27
2023-01-29T20:30:37.362Z,28.60
2023-01-29T20:33:05.383Z,29.27
2023-01-29T20:35:33.971Z,27.07
2023-01-29T20:38:01.415Z,31.35
2023-01-29T20:40:28.337Z,30.00
2023-01-29T20:42:55.151Z,28.20
2023-01-29T20:45:22.597Z,26.95
2023-01-29T20:47:49.824Z,28.30
2023-01-29T20:50:18.872Z,29.40
2023-01-29T20:52:46.271Z,27.92
2023-01-29T20:55:13.325Z,27.98
2023-01-29T20:57:40.336Z,27.55
2023-01-29T21:00:08.572Z,24.90
2023-01-29T21:02:35.380Z,24.67
2023-01-29T21:05:02.112Z,26.88
2023-01-29T21:07:28.982Z,25.55
2023-01-29T21:09:55.711Z,27.27
2023-01-29T21:12:22.543Z,29.57
2023-01-29T21:14:49.367Z,17.67
2023-01-29T21:17:16.262Z,26.23
2023-01-29T21:19:44.024Z,27.23
2023-01-29T21:22:10.780Z,23.20
2023-01-29T21:24:37.531Z,28.57
2023-01-29T21:27:04.383Z,31.55
2023-01-29T21:29:31.190Z,25.95
2023-01-29T21:31:58.021Z,25.90
2023-01-29T21:34:25.507Z,29.58
2023-01-29T21:36:52.270Z,26.60
2023-01-29T21:39:20.959Z,25.25
2023-01-29T21:42:08.256Z,27.15
2023-01-29T21:44:35.391Z,23.45
2023-01-29T21:47:12.306Z,29.02
2023-01-29T21:49:41.178Z,24.67
2023-01-29T21:52:08.711Z,30.45
2023-01-29T21:54:35.648Z,26.98
2023-01-29T21:57:07.547Z,25.63
2023-01-29T21:59:35.148Z,31.00
2023-01-29T22:02:02.304Z,30.50
2023-01-29T22:04:29.249Z,20.63
2023-01-29T22:06:56.061Z,27.00
2023-01-29T22:09:22.881Z,28.63
2023-01-29T22:11:49.731Z,23.83
2023-01-29T22:14:18.571Z,30.13
2023-01-29T22:16:46.051Z,24.00
2023-01-29T22:19:13.638Z,28.50
2023-01-29T22:21:40.625Z,31.45
2023-01-29T22:24:07.709Z,27.30
2023-01-29T22:26:35.791Z,27.57
2023-01-29T22:29:02.858Z,26.27
2023-01-29T22:31:29.752Z,26.67
2023-01-29T22:33:56.803Z,24.75
2023-01-29T22:36:23.696Z,29.35
2023-01-29T22:38:50.514Z,28.40
2023-01-29T22:41:17.457Z,28.60
2023-01-29T22:43:44.184Z,25.58
2023-01-29T22:46:12.232Z,29.05
2023-01-29T22:48:39.007Z,24.42
2023-01-29T22:51:12.090Z,27.10
2023-01-29T22:53:41.023Z,24.30
2023-01-29T22:56:08.670Z,25.23
2023-01-29T22:58:35.639Z,28.52
2023-01-29T23:01:03.067Z,30.75
2023-01-29T23:03:29.981Z,29.53
2023-01-29T23:05:56.734Z,32.28
2023-01-29T23:08:23.573Z,27.67
2023-01-29T23:10:50.412Z,29.88
2023-01-29T23:13:17.201Z,29.48
2023-01-29T23:15:44.074Z,30.97
2023-01-29T23:18:11.093Z,30.67
2023-01-29T23:20:37.843Z,27.75
2023-01-29T23:23:04.682Z,22.90
2023-01-29T23:25:49.878Z,26.27
2023-01-29T23:28:16.636Z,31.33
2023-01-29T23:30:45.215Z,30.77
2023-01-29T23:33:12.353Z,30.05
2023-01-29T23:35:39.398Z,32.17
2023-01-29T23:38:06.145Z,30.42
2023-01-29T23:40:32.942Z,25.73
2023-01-29T23:42:59.746Z,29.40
2023-01-29T23:45:26.677Z,31.92
2023-01-29T23:47:53.451Z,29.20
2023-01-29T23:50:20.330Z,24.33
2023-01-29T23:52:47.163Z,33.53
2023-01-29T23:55:13.948Z,30.90
2023-01-29T23:57:40.784Z,30.92
